sensor_id;sensor_type;location;lat;lon;timestamp;P1;durP1;ratioP1;P2;durP2;ratioP2
33076;SDS011;38790;51.964;5.924;2022-12-07T00:01:16;37.13;;;24.67;;
33076;SDS011;38790;51.964;5.924;2022-12-07T00:03:47;38.50;;;23.35;;
33076;SDS011;38790;51.964;5.924;2022-12-07T00:06:16;32.85;;;22.05;;
33076;SDS011;38790;51.964;5.924;2022-12-07T00:08:43;36.15;;;22.35;;
33076;SDS011;38790;51.964;5.924;2022-12-07T00:11:11;29.77;;;21.38;;
33076;SDS011;38790;51.964;5.924;2022-12-07T00:13:47;31.45;;;21.52;;
33076;SDS011;38790;51.964;5.924;2022-12-07T00:16:18;34.63;;;22.20;;
33076;SDS011;38790;51.964;5.924;2022-12-07T00:18:46;30.35;;;20.55;;
33076;SDS011;38790;51.964;5.924;2022-12-07T00:21:13;29.73;;;20.83;;
33076;SDS011;38790;51.964;5.924;2022-12-07T00:23:43;28.45;;;20.60;;
33076;SDS011;38790;51.964;5.924;2022-12-07T00:26:11;27.67;;;20.08;;
33076;SDS011;38790;51.964;5.924;2022-12-07T00:28:37;30.45;;;20.20;;
33076;SDS011;38790;51.964;5.924;2022-12-07T00:31:06;30.42;;;19.23;;
33076;SDS011;38790;51.964;5.924;2022-12-07T00:33:34;30.25;;;20.75;;
33076;SDS011;38790;51.964;5.924;2022-12-07T00:36:03;30.02;;;18.95;;
33076;SDS011;38790;51.964;5.924;2022-12-07T00:38:32;32.97;;;20.17;;
33076;SDS011;38790;51.964;5.924;2022-12-07T00:41:00;32.25;;;19.33;;
33076;SDS011;38790;51.964;5.924;2022-12-07T00:43:29;33.88;;;20.45;;
33076;SDS011;38790;51.964;5.924;2022-12-07T00:45:55;38.60;;;19.45;;
33076;SDS011;38790;51.964;5.924;2022-12-07T00:48:22;34.42;;;18.90;;
33076;SDS011;38790;51.964;5.924;2022-12-07T00:50:49;37.53;;;19.83;;
33076;SDS011;38790;51.964;5.924;2022-12-07T00:53:15;34.67;;;18.77;;
33076;SDS011;38790;51.964;5.924;2022-12-07T00:55:41;32.17;;;18.95;;
33076;SDS011;38790;51.964;5.924;2022-12-07T00:58:07;39.83;;;19.13;;
33076;SDS011;38790;51.964;5.924;2022-12-07T01:00:35;37.78;;;19.48;;
33076;SDS011;38790;51.964;5.924;2022-12-07T01:03:02;31.60;;;18.65;;
33076;SDS011;38790;51.964;5.924;2022-12-07T01:05:29;28.02;;;18.27;;
33076;SDS011;38790;51.964;5.924;2022-12-07T01:07:55;37.33;;;19.65;;
33076;SDS011;38790;51.964;5.924;2022-12-07T01:10:21;33.55;;;19.33;;
33076;SDS011;38790;51.964;5.924;2022-12-07T01:12:47;39.33;;;19.35;;
33076;SDS011;38790;51.964;5.924;2022-12-07T01:15:13;34.33;;;18.85;;
33076;SDS011;38790;51.964;5.924;2022-12-07T01:17:40;39.45;;;21.75;;
33076;SDS011;38790;51.964;5.924;2022-12-07T01:20:06;37.70;;;20.08;;
33076;SDS011;38790;51.964;5.924;2022-12-07T01:22:40;28.25;;;18.67;;
33076;SDS011;38790;51.964;5.924;2022-12-07T01:25:08;37.67;;;20.55;;
33076;SDS011;38790;51.964;5.924;2022-12-07T01:27:35;33.35;;;20.35;;
33076;SDS011;38790;51.964;5.924;2022-12-07T01:30:04;38.92;;;21.08;;
33076;SDS011;38790;51.964;5.924;2022-12-07T01:32:32;33.65;;;21.77;;
33076;SDS011;38790;51.964;5.924;2022-12-07T01:34:59;32.03;;;20.13;;
33076;SDS011;38790;51.964;5.924;2022-12-07T01:37:25;32.20;;;22.50;;
33076;SDS011;38790;51.964;5.924;2022-12-07T01:39:51;36.63;;;20.60;;
33076;SDS011;38790;51.964;5.924;2022-12-07T01:42:17;32.70;;;21.02;;
33076;SDS011;38790;51.964;5.924;2022-12-07T01:45:14;31.42;;;21.25;;
33076;SDS011;38790;51.964;5.924;2022-12-07T01:47:53;33.47;;;19.98;;
33076;SDS011;38790;51.964;5.924;2022-12-07T01:50:22;34.85;;;19.83;;
33076;SDS011;38790;51.964;5.924;2022-12-07T01:52:52;32.30;;;20.27;;
33076;SDS011;38790;51.964;5.924;2022-12-07T01:55:21;35.47;;;20.08;;
33076;SDS011;38790;51.964;5.924;2022-12-07T01:57:48;33.47;;;20.30;;
33076;SDS011;38790;51.964;5.924;2022-12-07T02:00:17;31.92;;;19.58;;
33076;SDS011;38790;51.964;5.924;2022-12-07T02:02:48;27.35;;;19.05;;
33076;SDS011;38790;51.964;5.924;2022-12-07T02:05:33;27.85;;;18.52;;
33076;SDS011;38790;51.964;5.924;2022-12-07T02:08:00;29.50;;;18.70;;
33076;SDS011;38790;51.964;5.924;2022-12-07T02:10:29;37.80;;;19.35;;
33076;SDS011;38790;51.964;5.924;2022-12-07T02:12:58;31.08;;;20.15;;
33076;SDS011;38790;51.964;5.924;2022-12-07T02:16:16;35.05;;;19.10;;
33076;SDS011;38790;51.964;5.924;2022-12-07T02:30:15;31.42;;;19.55;;
33076;SDS011;38790;51.964;5.924;2022-12-07T02:32:48;31.40;;;18.50;;
33076;SDS011;38790;51.964;5.924;2022-12-07T02:43:25;37.75;;;18.92;;
33076;SDS011;38790;51.964;5.924;2022-12-07T02:46:09;26.88;;;17.95;;
33076;SDS011;38790;51.964;5.924;2022-12-07T02:48:39;27.58;;;18.02;;
33076;SDS011;38790;51.964;5.924;2022-12-07T02:51:08;31.95;;;20.23;;
33076;SDS011;38790;51.964;5.924;2022-12-07T02:53:42;26.65;;;18.67;;
33076;SDS011;38790;51.964;5.924;2022-12-07T03:02:10;27.25;;;17.35;;
33076;SDS011;38790;51.964;5.924;2022-12-07T03:07:44;27.55;;;17.20;;
33076;SDS011;38790;51.964;5.924;2022-12-07T03:13:02;36.95;;;18.63;;
33076;SDS011;38790;51.964;5.924;2022-12-07T03:18:16;26.02;;;16.65;;
33076;SDS011;38790;51.964;5.924;2022-12-07T03:20:45;40.30;;;19.25;;
33076;SDS011;38790;51.964;5.924;2022-12-07T03:23:15;28.08;;;16.02;;
33076;SDS011;38790;51.964;5.924;2022-12-07T03:25:45;30.23;;;17.80;;
33076;SDS011;38790;51.964;5.924;2022-12-07T03:28:16;30.80;;;16.92;;
33076;SDS011;38790;51.964;5.924;2022-12-07T03:33:36;40.17;;;17.73;;
33076;SDS011;38790;51.964;5.924;2022-12-07T03:36:52;32.33;;;15.13;;
33076;SDS011;38790;51.964;5.924;2022-12-07T03:41:56;30.25;;;14.23;;
33076;SDS011;38790;51.964;5.924;2022-12-07T03:44:25;32.53;;;14.85;;
33076;SDS011;38790;51.964;5.924;2022-12-07T03:47:05;30.67;;;14.60;;
33076;SDS011;38790;51.964;5.924;2022-12-07T03:50:20;36.58;;;15.05;;
33076;SDS011;38790;51.964;5.924;2022-12-07T03:52:52;21.55;;;10.77;;
33076;SDS011;38790;51.964;5.924;2022-12-07T03:55:32;28.98;;;14.20;;
33076;SDS011;38790;51.964;5.924;2022-12-07T03:58:03;32.17;;;14.50;;
33076;SDS011;38790;51.964;5.924;2022-12-07T04:00:32;28.20;;;12.88;;
33076;SDS011;38790;51.964;5.924;2022-12-07T04:02:59;32.13;;;14.02;;
33076;SDS011;38790;51.964;5.924;2022-12-07T04:05:25;25.02;;;13.68;;
33076;SDS011;38790;51.964;5.924;2022-12-07T04:07:52;28.52;;;13.63;;
33076;SDS011;38790;51.964;5.924;2022-12-07T04:10:18;34.75;;;13.18;;
33076;SDS011;38790;51.964;5.924;2022-12-07T04:12:44;31.15;;;12.68;;
33076;SDS011;38790;51.964;5.924;2022-12-07T04:15:10;23.75;;;11.70;;
33076;SDS011;38790;51.964;5.924;2022-12-07T04:17:37;22.15;;;10.88;;
33076;SDS011;38790;51.964;5.924;2022-12-07T04:20:03;22.00;;;11.68;;
33076;SDS011;38790;51.964;5.924;2022-12-07T04:22:30;19.25;;;10.85;;
33076;SDS011;38790;51.964;5.924;2022-12-07T04:24:57;23.35;;;11.13;;
33076;SDS011;38790;51.964;5.924;2022-12-07T04:27:23;27.33;;;12.45;;
33076;SDS011;38790;51.964;5.924;2022-12-07T04:29:49;23.42;;;11.23;;
33076;SDS011;38790;51.964;5.924;2022-12-07T04:32:15;27.65;;;10.82;;
33076;SDS011;38790;51.964;5.924;2022-12-07T04:34:41;26.25;;;11.52;;
33076;SDS011;38790;51.964;5.924;2022-12-07T04:37:07;34.42;;;13.10;;
33076;SDS011;38790;51.964;5.924;2022-12-07T04:39:33;34.65;;;11.75;;
33076;SDS011;38790;51.964;5.924;2022-12-07T04:42:00;29.02;;;12.65;;
33076;SDS011;38790;51.964;5.924;2022-12-07T04:44:27;22.65;;;12.20;;
33076;SDS011;38790;51.964;5.924;2022-12-07T04:46:54;33.95;;;12.43;;
33076;SDS011;38790;51.964;5.924;2022-12-07T04:49:22;23.33;;;12.23;;
33076;SDS011;38790;51.964;5.924;2022-12-07T04:51:49;29.90;;;12.80;;
33076;SDS011;38790;51.964;5.924;2022-12-07T04:54:15;28.13;;;11.93;;
33076;SDS011;38790;51.964;5.924;2022-12-07T04:56:42;34.88;;;12.90;;
33076;SDS011;38790;51.964;5.924;2022-12-07T04:59:09;31.27;;;13.02;;
33076;SDS011;38790;51.964;5.924;2022-12-07T05:01:36;28.33;;;11.88;;
33076;SDS011;38790;51.964;5.924;2022-12-07T05:04:02;34.80;;;12.25;;
33076;SDS011;38790;51.964;5.924;2022-12-07T05:06:29;32.63;;;10.85;;
33076;SDS011;38790;51.964;5.924;2022-12-07T05:08:55;29.50;;;10.88;;
33076;SDS011;38790;51.964;5.924;2022-12-07T05:11:21;30.70;;;10.77;;
33076;SDS011;38790;51.964;5.924;2022-12-07T05:14:19;20.38;;;9.80;;
33076;SDS011;38790;51.964;5.924;2022-12-07T05:16:46;26.10;;;11.10;;
33076;SDS011;38790;51.964;5.924;2022-12-07T05:19:15;26.25;;;9.93;;
33076;SDS011;38790;51.964;5.924;2022-12-07T05:21:41;21.17;;;10.43;;
33076;SDS011;38790;51.964;5.924;2022-12-07T05:24:08;19.80;;;10.82;;
33076;SDS011;38790;51.964;5.924;2022-12-07T05:26:37;24.50;;;10.50;;
33076;SDS011;38790;51.964;5.924;2022-12-07T05:29:03;19.20;;;10.45;;
33076;SDS011;38790;51.964;5.924;2022-12-07T05:31:29;26.25;;;10.45;;
33076;SDS011;38790;51.964;5.924;2022-12-07T05:33:56;22.75;;;10.25;;
33076;SDS011;38790;51.964;5.924;2022-12-07T05:36:22;28.50;;;10.32;;
33076;SDS011;38790;51.964;5.924;2022-12-07T05:38:49;28.00;;;10.30;;
33076;SDS011;38790;51.964;5.924;2022-12-07T05:41:16;17.52;;;10.55;;
33076;SDS011;38790;51.964;5.924;2022-12-07T05:44:02;29.08;;;11.23;;
33076;SDS011;38790;51.964;5.924;2022-12-07T05:46:28;26.98;;;11.18;;
33076;SDS011;38790;51.964;5.924;2022-12-07T05:48:54;17.52;;;10.63;;
33076;SDS011;38790;51.964;5.924;2022-12-07T05:51:21;24.67;;;11.30;;
33076;SDS011;38790;51.964;5.924;2022-12-07T05:53:47;22.48;;;10.85;;
33076;SDS011;38790;51.964;5.924;2022-12-07T05:56:13;17.42;;;9.80;;
33076;SDS011;38790;51.964;5.924;2022-12-07T05:58:39;26.55;;;10.88;;
33076;SDS011;38790;51.964;5.924;2022-12-07T06:01:24;21.60;;;10.73;;
33076;SDS011;38790;51.964;5.924;2022-12-07T06:03:50;18.95;;;10.35;;
33076;SDS011;38790;51.964;5.924;2022-12-07T06:06:16;25.80;;;10.98;;
33076;SDS011;38790;51.964;5.924;2022-12-07T06:08:42;20.10;;;10.50;;
33076;SDS011;38790;51.964;5.924;2022-12-07T06:11:08;28.05;;;14.75;;
33076;SDS011;38790;51.964;5.924;2022-12-07T06:13:53;19.83;;;10.65;;
33076;SDS011;38790;51.964;5.924;2022-12-07T06:16:19;19.73;;;10.70;;
33076;SDS011;38790;51.964;5.924;2022-12-07T06:18:45;29.55;;;11.52;;
33076;SDS011;38790;51.964;5.924;2022-12-07T06:21:11;24.13;;;11.18;;
33076;SDS011;38790;51.964;5.924;2022-12-07T06:23:38;26.13;;;10.38;;
33076;SDS011;38790;51.964;5.924;2022-12-07T06:26:04;32.35;;;10.35;;
33076;SDS011;38790;51.964;5.924;2022-12-07T06:28:30;25.42;;;10.93;;
33076;SDS011;38790;51.964;5.924;2022-12-07T06:30:59;25.25;;;10.18;;
33076;SDS011;38790;51.964;5.924;2022-12-07T06:33:27;24.77;;;10.43;;
33076;SDS011;38790;51.964;5.924;2022-12-07T06:35:53;24.23;;;11.07;;
33076;SDS011;38790;51.964;5.924;2022-12-07T06:38:20;20.70;;;10.63;;
33076;SDS011;38790;51.964;5.924;2022-12-07T06:40:46;24.02;;;10.90;;
33076;SDS011;38790;51.964;5.924;2022-12-07T06:43:13;17.42;;;10.13;;
33076;SDS011;38790;51.964;5.924;2022-12-07T06:45:40;27.30;;;10.50;;
33076;SDS011;38790;51.964;5.924;2022-12-07T06:48:07;23.60;;;9.52;;
33076;SDS011;38790;51.964;5.924;2022-12-07T06:50:33;22.92;;;9.48;;
33076;SDS011;38790;51.964;5.924;2022-12-07T06:52:59;26.60;;;11.20;;
33076;SDS011;38790;51.964;5.924;2022-12-07T06:55:25;26.65;;;10.52;;
33076;SDS011;38790;51.964;5.924;2022-12-07T06:57:51;17.52;;;9.95;;
33076;SDS011;38790;51.964;5.924;2022-12-07T07:00:18;22.42;;;9.77;;
33076;SDS011;38790;51.964;5.924;2022-12-07T07:02:44;26.80;;;10.43;;
33076;SDS011;38790;51.964;5.924;2022-12-07T07:05:10;18.63;;;9.50;;
33076;SDS011;38790;51.964;5.924;2022-12-07T07:07:36;29.63;;;9.52;;
33076;SDS011;38790;51.964;5.924;2022-12-07T07:10:02;38.03;;;10.23;;
33076;SDS011;38790;51.964;5.924;2022-12-07T07:12:29;25.30;;;10.63;;
33076;SDS011;38790;51.964;5.924;2022-12-07T07:14:55;22.83;;;9.80;;
33076;SDS011;38790;51.964;5.924;2022-12-07T07:17:22;20.00;;;9.90;;
33076;SDS011;38790;51.964;5.924;2022-12-07T07:19:48;24.80;;;8.95;;
33076;SDS011;38790;51.964;5.924;2022-12-07T07:22:14;25.17;;;9.23;;
33076;SDS011;38790;51.964;5.924;2022-12-07T07:24:40;23.08;;;8.60;;
33076;SDS011;38790;51.964;5.924;2022-12-07T07:27:06;26.63;;;9.43;;
33076;SDS011;38790;51.964;5.924;2022-12-07T07:29:32;42.40;;;9.07;;
33076;SDS011;38790;51.964;5.924;2022-12-07T07:31:59;30.13;;;9.40;;
33076;SDS011;38790;51.964;5.924;2022-12-07T07:34:26;26.55;;;8.68;;
33076;SDS011;38790;51.964;5.924;2022-12-07T07:36:52;27.92;;;8.00;;
33076;SDS011;38790;51.964;5.924;2022-12-07T07:39:18;18.95;;;8.07;;
33076;SDS011;38790;51.964;5.924;2022-12-07T07:41:45;16.17;;;8.45;;
33076;SDS011;38790;51.964;5.924;2022-12-07T07:44:12;26.45;;;8.18;;
33076;SDS011;38790;51.964;5.924;2022-12-07T07:46:38;23.10;;;9.27;;
33076;SDS011;38790;51.964;5.924;2022-12-07T07:49:04;24.63;;;8.50;;
33076;SDS011;38790;51.964;5.924;2022-12-07T07:51:30;16.55;;;8.10;;
33076;SDS011;38790;51.964;5.924;2022-12-07T07:53:56;21.42;;;9.48;;
33076;SDS011;38790;51.964;5.924;2022-12-07T07:56:23;22.42;;;8.88;;
33076;SDS011;38790;51.964;5.924;2022-12-07T07:58:51;37.25;;;8.98;;
33076;SDS011;38790;51.964;5.924;2022-12-07T08:01:18;28.27;;;8.95;;
33076;SDS011;38790;51.964;5.924;2022-12-07T08:03:48;16.77;;;8.07;;
33076;SDS011;38790;51.964;5.924;2022-12-07T08:06:15;25.13;;;8.27;;
33076;SDS011;38790;51.964;5.924;2022-12-07T08:08:41;28.13;;;8.23;;
33076;SDS011;38790;51.964;5.924;2022-12-07T08:11:08;21.30;;;7.88;;
33076;SDS011;38790;51.964;5.924;2022-12-07T08:13:34;24.17;;;7.82;;
33076;SDS011;38790;51.964;5.924;2022-12-07T08:16:08;19.50;;;7.70;;
33076;SDS011;38790;51.964;5.924;2022-12-07T08:18:36;20.63;;;9.15;;
33076;SDS011;38790;51.964;5.924;2022-12-07T08:21:04;20.10;;;9.18;;
33076;SDS011;38790;51.964;5.924;2022-12-07T08:23:31;23.88;;;9.93;;
33076;SDS011;38790;51.964;5.924;2022-12-07T08:26:01;35.17;;;10.55;;
33076;SDS011;38790;51.964;5.924;2022-12-07T08:28:31;27.15;;;10.30;;
33076;SDS011;38790;51.964;5.924;2022-12-07T08:31:05;28.20;;;10.25;;
33076;SDS011;38790;51.964;5.924;2022-12-07T08:33:32;21.77;;;9.90;;
33076;SDS011;38790;51.964;5.924;2022-12-07T08:36:00;23.20;;;9.25;;
33076;SDS011;38790;51.964;5.924;2022-12-07T08:38:27;25.38;;;9.32;;
33076;SDS011;38790;51.964;5.924;2022-12-07T08:40:54;22.30;;;8.70;;
33076;SDS011;38790;51.964;5.924;2022-12-07T08:43:21;29.98;;;8.70;;
33076;SDS011;38790;51.964;5.924;2022-12-07T08:45:48;20.58;;;8.63;;
33076;SDS011;38790;51.964;5.924;2022-12-07T08:48:17;24.73;;;8.57;;
33076;SDS011;38790;51.964;5.924;2022-12-07T08:50:47;23.10;;;8.13;;
33076;SDS011;38790;51.964;5.924;2022-12-07T08:53:14;26.75;;;8.40;;
33076;SDS011;38790;51.964;5.924;2022-12-07T08:55:40;18.83;;;7.47;;
33076;SDS011;38790;51.964;5.924;2022-12-07T08:58:06;26.35;;;8.57;;
33076;SDS011;38790;51.964;5.924;2022-12-07T09:00:33;31.50;;;8.25;;
33076;SDS011;38790;51.964;5.924;2022-12-07T09:02:59;24.83;;;7.80;;
33076;SDS011;38790;51.964;5.924;2022-12-07T09:05:25;29.08;;;7.70;;
33076;SDS011;38790;51.964;5.924;2022-12-07T09:07:52;26.48;;;7.60;;
33076;SDS011;38790;51.964;5.924;2022-12-07T09:10:22;32.20;;;8.13;;
33076;SDS011;38790;51.964;5.924;2022-12-07T09:12:48;27.38;;;8.93;;
33076;SDS011;38790;51.964;5.924;2022-12-07T09:15:15;31.75;;;9.60;;
33076;SDS011;38790;51.964;5.924;2022-12-07T09:17:41;26.73;;;9.65;;
33076;SDS011;38790;51.964;5.924;2022-12-07T09:20:07;29.35;;;10.00;;
33076;SDS011;38790;51.964;5.924;2022-12-07T09:22:33;27.73;;;10.20;;
33076;SDS011;38790;51.964;5.924;2022-12-07T09:25:00;41.13;;;11.00;;
33076;SDS011;38790;51.964;5.924;2022-12-07T09:27:27;20.13;;;9.57;;
33076;SDS011;38790;51.964;5.924;2022-12-07T09:29:53;39.63;;;10.35;;
33076;SDS011;38790;51.964;5.924;2022-12-07T09:32:20;25.60;;;10.35;;
33076;SDS011;38790;51.964;5.924;2022-12-07T09:34:46;20.45;;;8.82;;
33076;SDS011;38790;51.964;5.924;2022-12-07T09:37:12;23.30;;;9.57;;
33076;SDS011;38790;51.964;5.924;2022-12-07T09:39:38;26.80;;;7.97;;
33076;SDS011;38790;51.964;5.924;2022-12-07T09:42:05;23.80;;;8.90;;
33076;SDS011;38790;51.964;5.924;2022-12-07T09:44:32;18.38;;;8.18;;
33076;SDS011;38790;51.964;5.924;2022-12-07T09:47:00;25.60;;;8.07;;
33076;SDS011;38790;51.964;5.924;2022-12-07T09:49:30;24.70;;;7.32;;
33076;SDS011;38790;51.964;5.924;2022-12-07T09:52:02;21.40;;;7.78;;
33076;SDS011;38790;51.964;5.924;2022-12-07T09:54:44;26.73;;;7.28;;
33076;SDS011;38790;51.964;5.924;2022-12-07T09:57:13;23.45;;;7.20;;
33076;SDS011;38790;51.964;5.924;2022-12-07T09:59:40;16.70;;;6.18;;
33076;SDS011;38790;51.964;5.924;2022-12-07T10:05:00;21.02;;;6.13;;
33076;SDS011;38790;51.964;5.924;2022-12-07T10:07:29;22.50;;;6.75;;
33076;SDS011;38790;51.964;5.924;2022-12-07T10:09:55;16.83;;;6.78;;
33076;SDS011;38790;51.964;5.924;2022-12-07T10:12:21;13.07;;;6.15;;
33076;SDS011;38790;51.964;5.924;2022-12-07T10:14:55;14.05;;;6.15;;
33076;SDS011;38790;51.964;5.924;2022-12-07T10:17:30;12.07;;;5.25;;
33076;SDS011;38790;51.964;5.924;2022-12-07T10:22:56;13.10;;;5.28;;
33076;SDS011;38790;51.964;5.924;2022-12-07T10:25:29;17.52;;;5.30;;
33076;SDS011;38790;51.964;5.924;2022-12-07T10:28:01;11.85;;;4.13;;
33076;SDS011;38790;51.964;5.924;2022-12-07T10:33:37;17.15;;;4.50;;
33076;SDS011;38790;51.964;5.924;2022-12-07T10:36:18;12.57;;;4.45;;
33076;SDS011;38790;51.964;5.924;2022-12-07T10:38:46;16.20;;;4.45;;
33076;SDS011;38790;51.964;5.924;2022-12-07T10:41:13;19.23;;;4.72;;
33076;SDS011;38790;51.964;5.924;2022-12-07T10:43:46;17.65;;;5.60;;
33076;SDS011;38790;51.964;5.924;2022-12-07T10:48:55;12.20;;;4.43;;
33076;SDS011;38790;51.964;5.924;2022-12-07T10:51:32;12.25;;;4.65;;
33076;SDS011;38790;51.964;5.924;2022-12-07T10:54:08;12.95;;;4.57;;
33076;SDS011;38790;51.964;5.924;2022-12-07T11:05:01;22.85;;;4.32;;
33076;SDS011;38790;51.964;5.924;2022-12-07T11:10:47;12.82;;;3.90;;
33076;SDS011;38790;51.964;5.924;2022-12-07T11:35:44;16.05;;;3.90;;
33076;SDS011;38790;51.964;5.924;2022-12-07T11:38:55;20.23;;;3.60;;
33076;SDS011;38790;51.964;5.924;2022-12-07T11:41:17;20.88;;;3.88;;
33076;SDS011;38790;51.964;5.924;2022-12-07T11:46:22;9.52;;;3.25;;
33076;SDS011;38790;51.964;5.924;2022-12-07T11:48:55;16.70;;;3.83;;
33076;SDS011;38790;51.964;5.924;2022-12-07T11:51:27;14.88;;;3.85;;
33076;SDS011;38790;51.964;5.924;2022-12-07T11:53:58;10.80;;;3.55;;
33076;SDS011;38790;51.964;5.924;2022-12-07T11:56:36;8.45;;;3.72;;
33076;SDS011;38790;51.964;5.924;2022-12-07T12:06:40;11.02;;;3.65;;
33076;SDS011;38790;51.964;5.924;2022-12-07T12:09:12;15.60;;;3.80;;
33076;SDS011;38790;51.964;5.924;2022-12-07T12:23:10;22.35;;;2.60;;
33076;SDS011;38790;51.964;5.924;2022-12-07T12:25:47;7.28;;;2.60;;
33076;SDS011;38790;51.964;5.924;2022-12-07T12:33:56;12.90;;;2.83;;
33076;SDS011;38790;51.964;5.924;2022-12-07T12:36:26;15.90;;;3.03;;
33076;SDS011;38790;51.964;5.924;2022-12-07T12:51:55;17.73;;;3.72;;
33076;SDS011;38790;51.964;5.924;2022-12-07T12:59:37;11.43;;;2.83;;
33076;SDS011;38790;51.964;5.924;2022-12-07T13:18:00;23.83;;;3.47;;
33076;SDS011;38790;51.964;5.924;2022-12-07T13:23:09;12.60;;;3.53;;
33076;SDS011;38790;51.964;5.924;2022-12-07T13:28:35;17.95;;;3.67;;
33076;SDS011;38790;51.964;5.924;2022-12-07T13:33:53;16.55;;;4.82;;
33076;SDS011;38790;51.964;5.924;2022-12-07T13:36:21;14.20;;;4.00;;
33076;SDS011;38790;51.964;5.924;2022-12-07T13:38:56;13.10;;;4.57;;
33076;SDS011;38790;51.964;5.924;2022-12-07T13:41:26;11.85;;;4.82;;
33076;SDS011;38790;51.964;5.924;2022-12-07T13:44:05;20.58;;;6.32;;
33076;SDS011;38790;51.964;5.924;2022-12-07T13:49:23;15.60;;;6.00;;
33076;SDS011;38790;51.964;5.924;2022-12-07T13:52:12;11.32;;;4.18;;
33076;SDS011;38790;51.964;5.924;2022-12-07T13:57:26;18.90;;;4.95;;
33076;SDS011;38790;51.964;5.924;2022-12-07T13:59:56;23.38;;;4.90;;
33076;SDS011;38790;51.964;5.924;2022-12-07T14:02:28;12.20;;;3.28;;
33076;SDS011;38790;51.964;5.924;2022-12-07T14:05:15;11.05;;;3.35;;
33076;SDS011;38790;51.964;5.924;2022-12-07T14:07:57;12.18;;;3.70;;
33076;SDS011;38790;51.964;5.924;2022-12-07T14:13:35;17.25;;;4.15;;
33076;SDS011;38790;51.964;5.924;2022-12-07T14:16:19;17.20;;;3.72;;
33076;SDS011;38790;51.964;5.924;2022-12-07T14:18:56;13.88;;;3.40;;
33076;SDS011;38790;51.964;5.924;2022-12-07T14:21:24;17.15;;;3.85;;
33076;SDS011;38790;51.964;5.924;2022-12-07T14:26:46;11.57;;;2.72;;
33076;SDS011;38790;51.964;5.924;2022-12-07T14:31:52;10.50;;;1.90;;
33076;SDS011;38790;51.964;5.924;2022-12-07T14:34:20;6.80;;;1.80;;
33076;SDS011;38790;51.964;5.924;2022-12-07T14:36:47;7.57;;;1.60;;
33076;SDS011;38790;51.964;5.924;2022-12-07T14:39:13;12.45;;;2.13;;
33076;SDS011;38790;51.964;5.924;2022-12-07T14:41:39;9.02;;;1.98;;
33076;SDS011;38790;51.964;5.924;2022-12-07T14:44:22;6.50;;;1.70;;
33076;SDS011;38790;51.964;5.924;2022-12-07T14:46:49;8.60;;;2.05;;
33076;SDS011;38790;51.964;5.924;2022-12-07T14:49:16;3.13;;;1.85;;
33076;SDS011;38790;51.964;5.924;2022-12-07T14:51:42;4.05;;;2.20;;
33076;SDS011;38790;51.964;5.924;2022-12-07T14:54:18;5.28;;;2.20;;
33076;SDS011;38790;51.964;5.924;2022-12-07T14:56:46;10.60;;;3.08;;
33076;SDS011;38790;51.964;5.924;2022-12-07T14:59:16;5.88;;;2.30;;
33076;SDS011;38790;51.964;5.924;2022-12-07T15:01:44;11.10;;;2.72;;
33076;SDS011;38790;51.964;5.924;2022-12-07T15:04:10;11.90;;;3.33;;
33076;SDS011;38790;51.964;5.924;2022-12-07T15:06:36;7.32;;;3.58;;
33076;SDS011;38790;51.964;5.924;2022-12-07T15:09:03;12.63;;;3.90;;
33076;SDS011;38790;51.964;5.924;2022-12-07T15:11:29;10.73;;;3.55;;
33076;SDS011;38790;51.964;5.924;2022-12-07T15:13:56;6.82;;;2.88;;
33076;SDS011;38790;51.964;5.924;2022-12-07T15:16:35;11.25;;;3.13;;
33076;SDS011;38790;51.964;5.924;2022-12-07T15:19:02;13.35;;;3.33;;
33076;SDS011;38790;51.964;5.924;2022-12-07T15:21:28;10.93;;;2.78;;
33076;SDS011;38790;51.964;5.924;2022-12-07T15:23:54;12.40;;;3.08;;
33076;SDS011;38790;51.964;5.924;2022-12-07T15:26:20;17.48;;;3.83;;
33076;SDS011;38790;51.964;5.924;2022-12-07T15:28:46;9.65;;;3.58;;
33076;SDS011;38790;51.964;5.924;2022-12-07T15:31:13;11.82;;;3.30;;
33076;SDS011;38790;51.964;5.924;2022-12-07T15:33:41;13.73;;;3.67;;
33076;SDS011;38790;51.964;5.924;2022-12-07T15:36:08;13.32;;;3.22;;
33076;SDS011;38790;51.964;5.924;2022-12-07T15:38:46;10.38;;;3.78;;
33076;SDS011;38790;51.964;5.924;2022-12-07T15:41:12;16.58;;;4.82;;
33076;SDS011;38790;51.964;5.924;2022-12-07T15:43:38;17.00;;;5.22;;
33076;SDS011;38790;51.964;5.924;2022-12-07T15:46:23;15.63;;;5.45;;
33076;SDS011;38790;51.964;5.924;2022-12-07T15:48:54;19.77;;;6.03;;
33076;SDS011;38790;51.964;5.924;2022-12-07T15:51:20;16.23;;;5.78;;
33076;SDS011;38790;51.964;5.924;2022-12-07T15:53:46;18.70;;;5.70;;
33076;SDS011;38790;51.964;5.924;2022-12-07T15:56:12;13.65;;;4.50;;
33076;SDS011;38790;51.964;5.924;2022-12-07T15:58:38;20.30;;;4.90;;
33076;SDS011;38790;51.964;5.924;2022-12-07T16:01:14;21.60;;;5.40;;
33076;SDS011;38790;51.964;5.924;2022-12-07T16:03:43;19.67;;;5.22;;
33076;SDS011;38790;51.964;5.924;2022-12-07T16:06:10;13.75;;;4.15;;
33076;SDS011;38790;51.964;5.924;2022-12-07T16:08:36;9.48;;;4.32;;
33076;SDS011;38790;51.964;5.924;2022-12-07T16:11:07;14.85;;;3.83;;
33076;SDS011;38790;51.964;5.924;2022-12-07T16:13:33;12.00;;;4.57;;
33076;SDS011;38790;51.964;5.924;2022-12-07T16:16:04;12.20;;;4.07;;
33076;SDS011;38790;51.964;5.924;2022-12-07T16:18:32;12.93;;;3.72;;
33076;SDS011;38790;51.964;5.924;2022-12-07T16:20:59;9.40;;;3.92;;
33076;SDS011;38790;51.964;5.924;2022-12-07T16:23:25;12.25;;;3.85;;
33076;SDS011;38790;51.964;5.924;2022-12-07T16:25:52;11.13;;;3.47;;
33076;SDS011;38790;51.964;5.924;2022-12-07T16:28:18;8.90;;;3.35;;
33076;SDS011;38790;51.964;5.924;2022-12-07T16:30:44;12.65;;;3.13;;
33076;SDS011;38790;51.964;5.924;2022-12-07T16:33:11;7.05;;;3.72;;
33076;SDS011;38790;51.964;5.924;2022-12-07T16:35:40;8.85;;;3.60;;
33076;SDS011;38790;51.964;5.924;2022-12-07T16:38:06;13.65;;;3.70;;
33076;SDS011;38790;51.964;5.924;2022-12-07T16:40:33;9.45;;;2.92;;
33076;SDS011;38790;51.964;5.924;2022-12-07T16:42:59;12.52;;;3.40;;
33076;SDS011;38790;51.964;5.924;2022-12-07T16:45:25;13.18;;;3.35;;
33076;SDS011;38790;51.964;5.924;2022-12-07T16:47:51;8.77;;;3.92;;
33076;SDS011;38790;51.964;5.924;2022-12-07T16:50:17;10.98;;;3.90;;
33076;SDS011;38790;51.964;5.924;2022-12-07T16:52:44;8.82;;;3.97;;
33076;SDS011;38790;51.964;5.924;2022-12-07T16:55:10;6.75;;;3.35;;
33076;SDS011;38790;51.964;5.924;2022-12-07T16:57:36;9.18;;;4.10;;
33076;SDS011;38790;51.964;5.924;2022-12-07T17:00:03;9.98;;;4.00;;
33076;SDS011;38790;51.964;5.924;2022-12-07T17:02:30;11.05;;;4.13;;
33076;SDS011;38790;51.964;5.924;2022-12-07T17:04:56;19.15;;;4.72;;
33076;SDS011;38790;51.964;5.924;2022-12-07T17:07:22;14.02;;;3.90;;
33076;SDS011;38790;51.964;5.924;2022-12-07T17:09:48;13.85;;;5.50;;
33076;SDS011;38790;51.964;5.924;2022-12-07T17:12:14;18.77;;;7.00;;
33076;SDS011;38790;51.964;5.924;2022-12-07T17:14:40;15.85;;;4.80;;
33076;SDS011;38790;51.964;5.924;2022-12-07T17:17:38;10.88;;;4.70;;
33076;SDS011;38790;51.964;5.924;2022-12-07T17:20:05;10.82;;;4.85;;
33076;SDS011;38790;51.964;5.924;2022-12-07T17:22:32;13.90;;;6.07;;
33076;SDS011;38790;51.964;5.924;2022-12-07T17:24:58;16.25;;;6.30;;
33076;SDS011;38790;51.964;5.924;2022-12-07T17:27:24;12.07;;;5.50;;
33076;SDS011;38790;51.964;5.924;2022-12-07T17:29:50;12.77;;;5.13;;
33076;SDS011;38790;51.964;5.924;2022-12-07T17:32:16;12.85;;;3.90;;